Time;durP1;ratioP1;P1;durP2;ratioP2;P2;SDS_P1;SDS_P2;PMS_P1;PMS_P2;Temp;Humidity;BMP_temperature;BMP_pressure;BME280_temperature;BME280_humidity;BME280_pressure;Samples;Min_cycle;Max_cycle;Signal;HPM_P1;HPM_P2
2022/04/10 00:00:39;;;;;;;14.57;5.47;;;;;;;13.57;44.53;94040.78;6235461;23;20018;-83
2022/04/10 00:03:05;;;;;;;18.08;5.72;;;;;;;13.45;45.27;93996.16;6238457;22;20007;-84
2022/04/10 00:05:31;;;;;;;25.10;8.63;;;;;;;13.63;45.03;94031.50;6234470;23;20016;-84
2022/04/10 00:07:56;;;;;;;29.55;8.75;;;;;;;13.99;45.10;94097.66;6232680;23;20012;-83
2022/04/10 00:10:22;;;;;;;28.00;9.18;;;;;;;13.92;44.18;94066.16;6235515;23;20012;-84
2022/04/10 00:12:48;;;;;;;25.95;9.05;;;;;;;13.71;43.99;94028.03;6235117;23;20023;-83
2022/04/10 00:15:14;;;;;;;25.15;9.10;;;;;;;14.23;43.91;94098.63;6236827;22;20026;-84
2022/04/10 00:17:41;;;;;;;23.25;9.23;;;;;;;13.59;43.31;94018.03;6236270;22;20387;-83
2022/04/10 00:20:07;;;;;;;30.08;10.82;;;;;;;14.20;43.43;94095.81;6237666;23;20244;-83
2022/04/10 00:22:43;;;;;;;36.72;8.85;;;;;;;13.81;44.57;94023.09;6237161;22;20051;-83
2022/04/10 00:25:10;;;;;;;27.42;8.52;;;;;;;13.11;44.72;93947.25;6236003;22;20014;-83
2022/04/10 00:27:35;;;;;;;18.05;8.55;;;;;;;13.74;44.50;94067.34;6238117;22;20019;-84
2022/04/10 00:30:01;;;;;;;30.13;8.48;;;;;;;13.63;45.39;94109.53;6234714;23;20545;-83
2022/04/10 00:32:27;;;;;;;29.90;9.98;;;;;;;12.73;45.87;93976.44;6234882;23;20473;-83
2022/04/10 00:34:53;;;;;;;29.15;9.77;;;;;;;13.13;45.80;94042.75;6234736;23;20011;-83
2022/04/10 00:37:19;;;;;;;24.08;9.38;;;;;;;13.25;46.62;94082.84;6237062;22;20077;-83
2022/04/10 00:39:44;;;;;;;24.30;9.45;;;;;;;12.33;46.21;93909.38;6233768;23;20497;-84
2022/04/10 00:42:10;;;;;;;27.83;8.90;;;;;;;12.31;46.08;93903.59;6235540;22;20016;-84
2022/04/10 00:44:35;;;;;;;27.63;9.48;;;;;;;12.72;46.59;93998.03;6233938;23;20554;-83
2022/04/10 00:47:01;;;;;;;25.38;9.75;;;;;;;12.53;46.92;93998.34;6233612;23;20442;-83
2022/04/10 00:49:26;;;;;;;38.50;10.50;;;;;;;13.16;47.20;94089.28;6234638;23;20008;-83
2022/04/10 00:51:53;;;;;;;27.60;9.40;;;;;;;12.94;46.53;94034.31;6236663;23;20087;-84
2022/04/10 00:54:26;;;;;;;31.35;11.38;;;;;;;13.43;46.67;94107.53;6237681;22;20092;-83
2022/04/10 00:56:54;;;;;;;30.67;11.10;;;;;;;12.42;46.84;93961.78;6234447;23;20016;-83
2022/04/10 00:59:20;;;;;;;34.17;11.73;;;;;;;13.24;46.47;94081.28;6234144;23;20037;-84
2022/04/10 01:01:47;;;;;;;27.92;10.18;;;;;;;12.60;46.31;94013.84;6235422;23;20475;-83
2022/04/10 01:04:13;;;;;;;28.45;10.05;;;;;;;12.82;47.63;94042.94;6239054;22;20007;-83
2022/04/10 01:06:39;;;;;;;20.30;9.15;;;;;;;12.98;46.44;94000.66;6239089;22;20132;-83
2022/04/10 01:09:05;;;;;;;25.50;9.40;;;;;;;12.86;46.11;93953.41;6238439;23;20728;-83
2022/04/10 01:11:32;;;;;;;29.55;10.45;;;;;;;12.90;47.61;94055.44;6238668;22;20146;-83
2022/04/10 01:13:58;;;;;;;27.23;9.85;;;;;;;12.28;47.07;93935.34;6240315;22;20007;-83
2022/04/10 01:16:24;;;;;;;33.58;10.35;;;;;;;13.27;46.79;94039.94;6237462;23;20016;-84
2022/04/10 01:18:51;;;;;;;28.27;10.30;;;;;;;12.58;47.07;93922.97;6238863;22;20008;-83
2022/04/10 01:21:27;;;;;;;27.33;10.52;;;;;;;11.52;48.04;93842.78;6236755;23;20253;-84
2022/04/10 01:23:55;;;;;;;27.10;9.73;;;;;;;12.73;48.28;94058.13;6236984;23;20054;-83
2022/04/10 01:26:22;;;;;;;25.98;9.25;;;;;;;12.51;48.07;94029.78;6236240;23;20011;-84
2022/04/10 01:29:04;;;;;;;26.92;8.68;;;;;;;12.54;47.77;94037.16;6235340;23;20008;-83
2022/04/10 01:31:33;;;;;;;25.00;10.30;;;;;;;12.46;47.44;93992.72;6235656;23;20485;-84
2022/04/10 01:34:06;;;;;;;28.08;10.43;;;;;;;12.74;47.91;94049.03;6239194;22;20030;-83
2022/04/10 01:36:33;;;;;;;20.70;9.10;;;;;;;12.58;47.47;94018.72;6236578;23;20016;-83
2022/04/10 01:39:00;;;;;;;23.83;8.88;;;;;;;12.91;47.17;94040.25;6237151;23;20022;-84
2022/04/10 01:41:27;;;;;;;22.60;8.60;;;;;;;12.82;47.30;94032.28;6239122;22;20479;-82
2022/04/10 01:43:54;;;;;;;31.52;9.68;;;;;;;12.87;47.30;94021.50;6238620;22;20091;-83
2022/04/10 01:46:21;;;;;;;25.40;9.18;;;;;;;12.07;47.64;93924.56;6240119;22;20077;-83
2022/04/10 01:48:47;;;;;;;23.58;9.15;;;;;;;12.37;47.44;93971.47;6236335;23;20016;-84
2022/04/10 01:51:13;;;;;;;27.02;9.30;;;;;;;12.09;48.82;93994.13;6235834;23;20018;-83
2022/04/10 01:53:38;;;;;;;29.63;9.32;;;;;;;12.34;48.91;94043.09;6234504;23;20015;-83
2022/04/10 01:56:05;;;;;;;30.00;8.90;;;;;;;12.37;48.73;94037.91;6235523;23;20039;-83
2022/04/10 01:58:33;;;;;;;25.85;8.88;;;;;;;12.55;49.49;94056.56;6236970;22;20240;-84
2022/04/10 02:01:05;;;;;;;25.60;9.50;;;;;;;12.20;48.91;93979.44;6235374;23;20015;-83
2022/04/10 02:03:30;;;;;;;;;;;;;;;12.69;48.48;94049.97;6236301;23;20100;-83
2022/04/10 02:05:56;;;;;;;35.88;9.27;;;;;;;12.49;48.37;94007.28;6236189;23;19998;-83
2022/04/10 02:08:22;;;;;;;22.92;10.25;;;;;;;12.15;48.94;94014.13;6236001;23;20008;-84
2022/04/10 02:10:47;;;;;;;35.33;9.57;;;;;;;12.50;49.65;94056.72;6238365;22;20015;-83
2022/04/10 02:13:13;;;;;;;31.17;10.07;;;;;;;11.64;49.42;93903.25;6238147;23;20011;-84
2022/04/10 02:15:39;;;;;;;26.30;9.90;;;;;;;12.06;49.65;93954.88;6237818;22;20016;-83
2022/04/10 02:18:06;;;;;;;29.20;10.50;;;;;;;12.77;49.21;94038.56;6238751;22;20012;-84
2022/04/10 02:20:32;;;;;;;20.95;9.27;;;;;;;12.58;49.74;94046.09;6238541;22;20019;-84
2022/04/10 02:22:57;;;;;;;29.30;9.52;;;;;;;12.35;49.14;93999.47;6235657;23;20008;-83
2022/04/10 02:25:23;;;;;;;25.20;9.07;;;;;;;12.40;49.79;93994.00;6239707;22;20018;-83
2022/04/10 02:27:48;;;;;;;24.27;9.27;;;;;;;12.09;49.90;94006.63;6237431;23;20019;-83
2022/04/10 02:30:14;;;;;;;22.88;8.93;;;;;;;12.56;50.43;94071.41;6239003;22;20012;-84
2022/04/10 02:32:40;;;;;;;26.00;9.20;;;;;;;12.71;50.13;94062.97;6239742;22;20019;-83
2022/04/10 02:35:07;;;;;;;20.73;8.82;;;;;;;12.12;49.31;93961.63;6239988;22;20008;-83
2022/04/10 02:37:33;;;;;;;18.83;8.23;;;;;;;12.65;48.75;94035.75;6238646;23;20031;-84
2022/04/10 02:39:58;;;;;;;19.85;8.40;;;;;;;12.16;49.96;93975.06;6236819;22;20008;-83
2022/04/10 02:42:24;;;;;;;18.58;8.15;;;;;;;12.02;49.93;93951.28;6233022;23;20018;-84
2022/04/10 02:44:50;;;;;;;22.60;8.55;;;;;;;12.67;49.99;94065.47;6232069;23;20028;-83
2022/04/10 02:47:15;;;;;;;24.40;8.30;;;;;;;11.55;50.48;93926.34;6233833;22;20208;-84
2022/04/10 02:49:41;;;;;;;24.38;7.97;;;;;;;11.80;50.49;93956.72;6236319;22;20450;-82
2022/04/10 02:52:06;;;;;;;25.95;7.70;;;;;;;11.69;51.29;93920.88;6235625;22;20016;-83
2022/04/10 02:54:32;;;;;;;23.23;8.05;;;;;;;12.73;50.55;94084.75;6235919;22;20004;-83
2022/04/10 02:56:57;;;;;;;21.38;7.15;;;;;;;12.88;50.07;94062.19;6235497;22;20019;-83
2022/04/10 02:59:23;;;;;;;13.20;6.50;;;;;;;12.79;49.42;94042.78;6234129;23;20475;-83
2022/04/10 03:01:50;;;;;;;28.48;7.68;;;;;;;12.23;48.73;93930.97;6236662;22;20008;-84
2022/04/10 03:04:16;;;;;;;14.38;7.28;;;;;;;12.67;50.36;94017.59;6235686;22;20359;-82
2022/04/10 03:06:42;;;;;;;10.70;5.03;;;;;;;12.11;50.58;93973.34;6233403;23;20059;-83
2022/04/10 03:09:07;;;;;;;11.48;5.55;;;;;;;12.07;50.50;93948.47;6234545;22;20034;-83
2022/04/10 03:11:33;;;;;;;12.95;5.95;;;;;;;12.76;52.39;94060.16;6232573;23;20068;-83
2022/04/10 03:13:59;;;;;;;17.63;6.82;;;;;;;12.25;51.63;94021.81;6232775;23;20042;-83
2022/04/10 03:16:24;;;;;;;21.02;6.75;;;;;;;12.37;51.39;94040.59;6232930;23;20071;-83
2022/04/10 03:18:51;;;;;;;19.92;6.80;;;;;;;12.44;51.74;94098.59;6234567;22;20252;-83
2022/04/10 03:21:19;;;;;;;17.35;5.97;;;;;;;11.50;53.12;93943.22;6234147;22;20077;-83
2022/04/10 03:23:45;;;;;;;14.40;6.18;;;;;;;11.78;51.99;93946.41;6232140;23;20268;-83
2022/04/10 03:26:11;;;;;;;15.57;5.82;;;;;;;11.86;52.25;93968.75;6235254;23;20517;-83
2022/04/10 03:28:36;;;;;;;12.32;5.82;;;;;;;12.21;51.23;94002.25;6232719;23;20011;-83
2022/04/10 03:31:02;;;;;;;16.15;5.38;;;;;;;12.34;50.63;94025.28;6235007;22;20359;-83
2022/04/10 03:33:28;;;;;;;27.70;6.32;;;;;;;11.82;52.74;93984.56;6232712;23;20019;-83
2022/04/10 03:35:53;;;;;;;10.35;5.30;;;;;;;12.05;54.57;94072.13;6234519;22;20154;-82
2022/04/10 03:38:20;;;;;;;19.63;5.25;;;;;;;11.54;53.74;94013.19;6231637;23;20011;-82
2022/04/10 03:40:45;;;;;;;17.58;5.53;;;;;;;11.73;53.01;94036.06;6233042;23;20092;-84
2022/04/10 03:43:12;;;;;;;15.88;6.25;;;;;;;12.20;52.65;94053.88;6234943;22;20072;-83
2022/04/10 03:45:38;;;;;;;18.90;6.10;;;;;;;12.50;54.74;94088.63;6231806;23;20347;-84
2022/04/10 03:48:05;;;;;;;18.40;5.20;;;;;;;11.85;56.16;93991.88;6233500;23;20015;-84
2022/04/10 03:50:30;;;;;;;8.75;5.32;;;;;;;12.02;57.08;94064.75;6233358;22;20039;-82
2022/04/10 03:52:56;;;;;;;13.77;6.80;;;;;;;11.52;57.43;94002.06;6233341;23;20455;-83
2022/04/10 03:55:21;;;;;;;13.40;6.88;;;;;;;11.87;57.63;94071.28;6233505;23;20004;-84
2022/04/10 03:57:47;;;;;;;12.10;7.25;;;;;;;11.38;58.63;94003.25;6231929;23;20101;-83
2022/04/10 04:00:13;;;;;;;15.65;6.95;;;;;;;11.51;59.02;94044.88;6234381;22;20289;-84
2022/04/10 04:02:42;;;;;;;12.57;8.15;;;;;;;11.26;58.74;94056.94;6231285;22;20340;-83
2022/04/10 04:05:09;;;;;;;15.68;8.30;;;;;;;10.69;59.72;94008.97;6233693;22;20008;-84
2022/04/10 04:07:35;;;;;;;14.73;8.68;;;;;;;11.29;59.87;94138.59;6232765;23;20719;-83
2022/04/10 04:10:01;;;;;;;26.52;9.73;;;;;;;10.19;60.14;93943.94;6232753;22;20004;-84
2022/04/10 04:12:26;;;;;;;15.98;9.02;;;;;;;11.42;60.23;94126.34;6234279;22;20014;-83
2022/04/10 04:14:52;;;;;;;20.02;9.40;;;;;;;10.97;59.57;94053.97;6233862;22;20011;-84
2022/04/10 04:17:17;;;;;;;21.52;9.70;;;;;;;10.17;60.68;93991.91;6230673;22;20012;-83
2022/04/10 04:19:43;;;;;;;24.67;10.80;;;;;;;9.69;61.09;93930.69;6231254;23;20004;-83
2022/04/10 04:22:10;;;;;;;22.63;12.68;;;;;;;9.78;62.50;94015.50;6230682;23;20449;-84
2022/04/10 04:24:35;;;;;;;18.55;12.55;;;;;;;9.15;63.86;93995.81;6233986;22;20004;-83
2022/04/10 04:27:00;;;;;;;20.35;14.05;;;;;;;10.04;64.85;94141.81;6233869;23;20019;-83
2022/04/10 04:29:26;;;;;;;23.38;14.73;;;;;;;9.59;65.92;94106.41;6234277;22;20114;-83
2022/04/10 04:31:51;;;;;;;25.42;15.55;;;;;;;9.45;66.33;94105.59;6234623;23;20016;-84
2022/04/10 04:34:17;;;;;;;27.63;17.75;;;;;;;9.67;67.32;94179.06;6231831;23;20004;-83
2022/04/10 04:36:43;;;;;;;25.90;18.60;;;;;;;8.68;67.11;94070.91;6231994;23;20074;-83
2022/04/10 04:39:08;;;;;;;33.35;18.90;;;;;;;8.63;68.20;94113.25;6231075;23;20007;-83
2022/04/10 04:41:34;;;;;;;28.65;19.17;;;;;;;8.57;69.96;94068.69;6230859;23;20008;-82
2022/04/10 04:43:59;;;;;;;29.35;19.95;;;;;;;8.76;69.19;94138.19;6231037;22;20522;-82
2022/04/10 04:46:24;;;;;;;31.10;21.70;;;;;;;9.22;69.66;94202.56;6233453;22;20407;-82
2022/04/10 04:48:50;;;;;;;32.50;20.92;;;;;;;8.75;69.63;94152.50;6233047;22;20012;-84
2022/04/10 04:51:15;;;;;;;33.95;21.85;;;;;;;8.92;69.96;94218.88;6232969;22;20011;-84
2022/04/10 04:53:41;;;;;;;31.40;21.85;;;;;;;8.57;70.75;94227.25;6233393;23;20008;-82
2022/04/10 04:56:06;;;;;;;40.47;22.63;;;;;;;8.02;71.17;94151.00;6233102;23;20460;-83
2022/04/10 04:58:32;;;;;;;36.30;21.75;;;;;;;8.62;71.49;94208.72;6234011;22;20008;-83
2022/04/10 05:00:57;;;;;;;40.45;22.70;;;;;;;8.03;70.53;94091.84;6231896;23;20015;-84
2022/04/10 05:03:23;;;;;;;31.27;21.20;;;;;;;8.72;70.14;94219.13;6233838;23;20132;-83
2022/04/10 05:05:48;;;;;;;36.47;21.17;;;;;;;7.91;71.33;94138.22;6233708;23;20014;-82
2022/04/10 05:08:14;;;;;;;33.92;21.02;;;;;;;7.96;70.61;94170.63;6233366;23;20008;-83
2022/04/10 05:10:39;;;;;;;36.00;21.55;;;;;;;8.30;72.03;94244.47;6233299;23;20035;-83
2022/04/10 05:13:08;;;;;;;38.83;22.20;;;;;;;7.38;73.50;94096.03;6232082;23;20014;-84
2022/04/10 05:15:34;;;;;;;35.83;21.92;;;;;;;7.33;73.45;94091.56;6232631;23;20020;-83
2022/04/10 05:18:00;;;;;;;39.47;23.30;;;;;;;7.30;73.79;94120.38;6233667;23;20030;-83
2022/04/10 05:20:25;;;;;;;39.95;22.90;;;;;;;7.17;72.73;94181.69;6231654;23;20030;-83
2022/04/10 05:22:50;;;;;;;40.58;23.33;;;;;;;7.22;75.04;94144.72;6233642;22;20256;-84
2022/04/10 05:25:16;;;;;;;38.17;23.65;;;;;;;7.07;73.23;94107.94;6234736;23;20035;-83
2022/04/10 05:27:41;;;;;;;34.88;22.42;;;;;;;6.69;73.42;94094.53;6231751;23;20083;-83
2022/04/10 05:30:08;;;;;;;40.75;22.30;;;;;;;5.35;74.48;93918.47;6231962;23;20423;-83
2022/04/10 05:32:33;;;;;;;46.75;23.65;;;;;;;6.98;74.66;94166.50;6231059;23;20012;-84
2022/04/10 05:35:11;;;;;;;35.58;21.38;;;;;;;7.06;73.45;94188.06;6233025;23;20022;-83
2022/04/10 05:37:37;;;;;;;38.72;22.83;;;;;;;6.78;74.05;94135.03;6231143;23;20015;-83
2022/04/10 05:40:04;;;;;;;36.25;21.05;;;;;;;6.97;73.26;94187.88;6231782;23;20016;-82
2022/04/10 05:42:29;;;;;;;39.90;22.70;;;;;;;6.41;72.63;94082.84;6234269;22;20021;-83
2022/04/10 05:45:02;;;;;;;36.30;20.80;;;;;;;7.38;72.53;94232.41;6229605;22;20693;-82
2022/04/10 05:47:27;;;;;;;33.53;20.55;;;;;;;6.90;72.57;94119.66;6234653;22;20536;-83
2022/04/10 05:49:53;;;;;;;32.08;19.92;;;;;;;7.26;71.41;94204.53;6235332;22;20210;-83
2022/04/10 05:52:19;;;;;;;39.65;19.75;;;;;;;7.68;71.08;94266.44;6235491;22;20019;-83
2022/04/10 05:54:44;;;;;;;35.55;20.05;;;;;;;6.69;70.53;94107.69;6236358;22;20014;-83
2022/04/10 05:57:10;;;;;;;25.83;16.92;;;;;;;7.68;70.15;94277.00;6233015;23;20051;-83
2022/04/10 05:59:35;;;;;;;28.20;18.50;;;;;;;7.36;70.16;94257.19;6233295;23;20279;-83
2022/04/10 06:02:01;;;;;;;30.52;17.85;;;;;;;7.00;70.54;94213.69;6232865;23;20099;-84
2022/04/10 06:04:26;;;;;;;28.25;17.40;;;;;;;6.72;70.66;94154.56;6233464;22;20011;-83
2022/04/10 06:06:52;;;;;;;26.58;16.90;;;;;;;6.24;70.28;94145.66;6229844;23;20545;-84
2022/04/10 06:09:17;;;;;;;27.13;15.82;;;;;;;6.76;70.19;94186.44;6234690;23;20007;-83
2022/04/10 06:11:43;;;;;;;28.58;17.25;;;;;;;7.54;70.21;94278.72;6233597;22;20270;-84
2022/04/10 06:14:08;;;;;;;28.55;17.08;;;;;;;6.84;70.82;94201.66;6233647;23;20012;-83
2022/04/10 06:16:34;;;;;;;25.83;16.33;;;;;;;6.82;70.29;94185.34;6231950;23;20027;-83
2022/04/10 06:18:59;;;;;;;26.00;15.52;;;;;;;7.31;70.55;94259.09;6234908;22;20012;-84
2022/04/10 06:21:26;;;;;;;30.00;15.98;;;;;;;7.51;71.67;94301.16;6233025;22;20065;-83
2022/04/10 06:23:51;;;;;;;27.13;15.35;;;;;;;6.73;70.69;94218.59;6234930;22;20077;-83
2022/04/10 06:26:17;;;;;;;27.17;15.07;;;;;;;7.14;70.94;94267.38;6234712;22;20023;-83
2022/04/10 06:28:43;;;;;;;23.33;14.43;;;;;;;6.91;70.94;94210.84;6233661;22;20019;-83
2022/04/10 06:31:08;;;;;;;26.52;14.25;;;;;;;7.44;69.83;94295.41;6231656;23;20004;-83
2022/04/10 06:33:34;;;;;;;21.65;13.15;;;;;;;7.31;70.81;94293.38;6233597;22;20272;-83
2022/04/10 06:36:00;;;;;;;18.70;12.80;;;;;;;7.17;70.35;94321.44;6231509;23;20016;-83
2022/04/10 06:38:25;;;;;;;25.25;13.15;;;;;;;5.61;70.52;94041.94;6237201;22;20064;-84
2022/04/10 06:40:51;;;;;;;18.38;11.55;;;;;;;6.94;69.68;94289.34;6232650;23;20012;-84
2022/04/10 06:43:17;;;;;;;21.77;11.80;;;;;;;6.72;70.97;94215.16;6233738;22;20459;-82
2022/04/10 06:45:43;;;;;;;19.73;11.82;;;;;;;6.38;72.80;94188.75;6234301;22;20020;-82
2022/04/10 06:48:26;;;;;;;17.20;11.40;;;;;;;6.31;72.31;94185.63;6234888;23;20038;-82
2022/04/10 06:50:52;;;;;;;16.92;10.88;;;;;;;6.49;73.40;94192.09;6232374;22;20019;-83
2022/04/10 06:53:17;;;;;;;16.65;10.45;;;;;;;6.53;72.14;94185.25;6234445;23;20379;-83
2022/04/10 06:55:43;;;;;;;19.63;10.85;;;;;;;6.69;71.87;94215.72;6230380;23;20088;-83
2022/04/10 06:58:10;;;;;;;15.43;8.95;;;;;;;7.19;70.52;94295.56;6233633;22;20082;-83
2022/04/10 07:00:36;;;;;;;15.23;8.43;;;;;;;6.85;69.28;94206.69;6231229;23;20437;-84
2022/04/10 07:03:02;;;;;;;11.55;8.00;;;;;;;6.73;68.37;94218.59;6232577;22;20026;-83
2022/04/10 07:05:28;;;;;;;12.30;7.50;;;;;;;6.87;68.34;94251.19;6231320;23;20091;-84
2022/04/10 07:07:59;;;;;;;11.25;6.97;;;;;;;6.92;67.75;94261.72;6229854;23;20334;-83
2022/04/10 07:10:25;;;;;;;11.07;6.75;;;;;;;7.14;67.90;94304.28;6231779;23;20020;-83
2022/04/10 07:12:50;;;;;;;13.25;7.70;;;;;;;7.03;68.69;94305.41;6232525;23;20014;-84
2022/04/10 07:15:18;;;;;;;10.52;6.78;;;;;;;6.35;67.86;94183.22;6234062;23;20094;-83
2022/04/10 07:17:43;;;;;;;12.75;7.40;;;;;;;7.14;67.79;94282.41;6233956;22;20359;-83
2022/04/10 07:20:09;;;;;;;8.45;6.25;;;;;;;6.41;67.99;94171.59;6234315;22;20012;-83
2022/04/10 07:25:19;;;;;;;8.60;5.78;;;;;;;6.53;68.51;94209.75;6233857;23;20053;-83
2022/04/10 07:27:44;;;;;;;8.07;5.82;;;;;;;6.96;67.77;94226.63;6232745;23;20027;-83
2022/04/10 07:30:10;;;;;;;10.18;6.43;;;;;;;6.84;67.23;94226.19;6233033;23;20091;-83
2022/04/10 07:32:37;;;;;;;10.10;5.82;;;;;;;7.06;66.85;94222.34;6232569;23;20012;-83
2022/04/10 07:35:04;;;;;;;10.43;5.18;;;;;;;6.66;66.78;94236.53;6234618;22;20091;-83
2022/04/10 07:37:29;;;;;;;14.68;6.50;;;;;;;6.87;66.09;94270.41;6232722;23;20114;-83
2022/04/10 07:39:55;;;;;;;8.50;4.93;;;;;;;6.30;66.57;94222.75;6234555;22;20053;-83
2022/04/10 07:42:21;;;;;;;8.25;4.15;;;;;;;6.62;66.34;94225.00;6233230;23;20015;-83
2022/04/10 07:44:46;;;;;;;7.07;4.30;;;;;;;6.25;65.71;94133.28;6233219;22;20230;-83
2022/04/10 07:47:27;;;;;;;7.72;4.47;;;;;;;6.42;65.53;94155.53;6232453;23;20016;-83
2022/04/10 07:49:53;;;;;;;7.53;3.37;;;;;;;6.84;66.19;94310.50;6233771;23;20030;-83
2022/04/10 07:52:22;;;;;;;9.75;3.67;;;;;;;6.48;66.73;94241.38;6234439;23;20101;-84
2022/04/10 07:54:49;;;;;;;5.53;3.50;;;;;;;6.93;65.98;94279.13;6233719;23;20232;-83
2022/04/10 07:57:16;;;;;;;4.18;2.92;;;;;;;6.66;65.46;94212.84;6234198;23;20016;-84
2022/04/10 07:59:42;;;;;;;5.72;3.35;;;;;;;6.78;65.13;94221.22;6232634;23;20004;-83
2022/04/10 08:02:07;;;;;;;5.20;3.08;;;;;;;7.01;64.75;94262.72;6231274;23;20094;-83
2022/04/10 08:04:33;;;;;;;6.90;3.30;;;;;;;7.71;64.10;94334.50;6231049;23;20008;-84
2022/04/10 08:06:58;;;;;;;8.70;3.45;;;;;;;7.52;64.24;94242.03;6231535;23;20041;-84
2022/04/10 08:09:24;;;;;;;4.82;2.95;;;;;;;7.95;63.18;94319.53;6233235;23;20105;-83
2022/04/10 08:11:50;;;;;;;2.88;2.13;;;;;;;7.60;63.02;94294.22;6234821;22;20015;-83
2022/04/10 08:14:16;;;;;;;5.78;2.10;;;;;;;7.46;64.05;94332.06;6232990;23;20059;-83
2022/04/10 08:16:42;;;;;;;3.35;2.17;;;;;;;7.02;63.89;94310.97;6232951;23;20142;-82
2022/04/10 08:19:07;;;;;;;2.33;1.65;;;;;;;7.12;64.27;94338.03;6232513;23;20082;-82
2022/04/10 08:21:33;;;;;;;3.40;1.98;;;;;;;6.43;64.08;94256.41;6232584;23;20082;-83
2022/04/10 08:23:58;;;;;;;4.75;1.80;;;;;;;6.44;64.09;94250.88;6232317;23;20475;-83
2022/04/10 08:26:24;;;;;;;1.70;1.55;;;;;;;6.17;64.92;94248.63;6232546;23;20039;-83
2022/04/10 08:28:50;;;;;;;5.82;1.63;;;;;;;6.37;64.94;94275.91;6234621;22;20062;-83
2022/04/10 08:31:15;;;;;;;5.18;1.85;;;;;;;6.65;65.62;94319.28;6234350;22;20007;-83
2022/04/10 08:33:41;;;;;;;6.07;1.27;;;;;;;6.41;64.23;94311.97;6233276;23;20067;-83
2022/04/10 08:36:06;;;;;;;1.58;1.20;;;;;;;5.70;65.56;94250.78;6233432;23;20084;-83
2022/04/10 08:38:32;;;;;;;1.55;1.20;;;;;;;5.67;65.81;94267.88;6234172;23;20004;-82
2022/04/10 08:41:01;;;;;;;2.90;1.17;;;;;;;6.12;65.86;94346.00;6234538;23;20019;-83
2022/04/10 08:43:28;;;;;;;2.70;1.35;;;;;;;5.73;65.90;94285.22;6235944;22;20052;-82
2022/04/10 08:45:58;;;;;;;4.22;1.50;;;;;;;6.33;65.01;94332.84;6235599;22;20029;-82
2022/04/10 08:48:27;;;;;;;1.95;1.40;;;;;;;6.17;65.40;94380.25;6232111;23;20012;-83
2022/04/10 08:51:01;;;;;;;4.60;1.30;;;;;;;5.58;66.90;94348.34;6233511;23;20039;-82
2022/04/10 08:53:27;;;;;;;1.50;1.23;;;;;;;5.83;67.30;94384.44;6235769;23;20147;-82
2022/04/10 08:55:52;;;;;;;2.95;1.70;;;;;;;5.61;68.06;94404.94;6232549;23;20043;-82
2022/04/10 08:58:18;;;;;;;2.50;1.40;;;;;;;5.07;70.06;94363.25;6208014;23;20019;-82
2022/04/10 09:00:44;;;;;;;6.30;1.50;;;;;;;4.67;70.91;94300.84;6233630;22;20084;-83
2022/04/10 09:03:10;;;;;;;10.68;5.97;;;;;;;5.39;73.20;94413.81;6237230;23;20028;-83
2022/04/10 09:05:37;;;;;;;3.55;1.60;;;;;;;4.74;71.65;94332.94;6234629;23;20552;-83
2022/04/10 09:08:13;;;;;;;4.32;1.40;;;;;;;5.01;74.08;94393.22;6237401;22;20008;-82
2022/04/10 09:10:59;;;;;;;1.98;1.35;;;;;;;4.82;74.15;94465.63;6234260;23;20093;-83
2022/04/10 09:13:30;;;;;;;2.22;1.38;;;;;;;4.10;75.73;94316.63;6233536;23;20019;-82
2022/04/10 09:16:06;;;;;;;2.03;1.42;;;;;;;4.06;74.08;94284.06;6232524;23;20027;-83
2022/04/10 09:18:51;;;;;;;2.00;1.40;;;;;;;4.89;75.29;94421.50;6231893;23;20038;-83
2022/04/10 09:21:19;;;;;;;1.25;1.00;;;;;;;4.76;73.76;94424.63;6233316;23;20008;-83
2022/04/10 09:24:05;;;;;;;4.18;0.90;;;;;;;4.51;73.19;94439.19;6235118;23;20140;-83
2022/04/10 09:26:49;;;;;;;2.40;1.38;;;;;;;4.03;73.34;94379.81;6235244;23;20004;-83
2022/04/10 09:29:17;;;;;;;4.53;2.25;;;;;;;4.14;74.85;94360.47;6235459;22;20087;-83
2022/04/10 09:31:43;;;;;;;3.90;1.98;;;;;;;3.66;73.39;94311.59;6234012;23;20012;-83
2022/04/10 09:34:13;;;;;;;2.67;1.73;;;;;;;4.66;74.08;94428.75;6239774;22;20036;-83
2022/04/10 09:36:44;;;;;;;2.20;1.50;;;;;;;4.51;75.12;94418.16;6238542;23;20070;-83
2022/04/10 09:39:15;;;;;;;1.80;1.45;;;;;;;4.61;76.65;94414.81;6237064;22;20069;-83
2022/04/10 09:41:43;;;;;;;2.20;1.60;;;;;;;4.57;75.50;94411.94;6241760;23;20074;-84
2022/04/10 09:44:14;;;;;;;2.53;1.52;;;;;;;4.82;74.96;94437.50;6245425;23;20395;-83
2022/04/10 09:46:40;;;;;;;3.30;1.63;;;;;;;4.18;75.43;94345.00;6245493;22;20004;-83
2022/04/10 09:49:12;;;;;;;3.40;2.00;;;;;;;4.55;75.09;94431.59;6244163;23;20070;-83
2022/04/10 09:51:56;;;;;;;2.53;1.83;;;;;;;4.02;76.62;94370.38;6243553;22;20008;-84
2022/04/10 09:54:22;;;;;;;5.68;2.58;;;;;;;3.94;76.18;94370.03;6239877;23;20004;-83
2022/04/10 09:56:49;;;;;;;2.88;1.77;;;;;;;4.22;77.15;94430.84;6237137;23;20023;-83
2022/04/10 09:59:17;;;;;;;2.97;1.55;;;;;;;4.09;78.39;94431.28;6237284;23;20489;-83
2022/04/10 10:01:43;;;;;;;1.58;1.20;;;;;;;3.74;77.21;94373.28;6235828;23;20023;-83
2022/04/10 10:04:11;;;;;;;2.95;1.38;;;;;;;3.93;77.76;94384.19;6234530;23;20528;-83
2022/04/10 10:06:37;;;;;;;2.90;1.60;;;;;;;3.95;77.36;94410.97;6236956;23;20118;-83
2022/04/10 10:09:02;;;;;;;3.28;0.80;;;;;;;3.53;77.46;94382.00;6234983;23;20039;-83
2022/04/10 10:11:30;;;;;;;2.75;1.00;;;;;;;3.11;79.58;94319.78;6236216;22;20065;-83
2022/04/10 10:13:56;;;;;;;1.08;0.80;;;;;;;3.31;77.79;94397.78;6234092;23;20012;-83
2022/04/10 10:16:22;;;;;;;1.48;0.88;;;;;;;3.67;80.14;94435.63;6234776;23;20457;-83
2022/04/10 10:18:48;;;;;;;1.70;1.00;;;;;;;2.98;82.01;94301.84;6232547;23;20008;-83
2022/04/10 10:21:14;;;;;;;1.98;1.00;;;;;;;3.53;79.81;94387.25;6233506;23;20012;-83
2022/04/10 10:23:46;;;;;;;2.72;1.17;;;;;;;3.77;79.83;94444.41;6236304;22;20023;-84
2022/04/10 10:26:32;;;;;;;1.30;1.10;;;;;;;3.89;80.86;94426.66;6243009;22;20007;-83
2022/04/10 10:29:34;;;;;;;6.88;1.70;;;;;;;4.07;81.79;94414.19;6238264;23;20338;-84
2022/04/10 10:32:40;;;;;;;1.70;1.10;;;;;;;3.47;80.25;94368.09;6235731;23;20008;-84
2022/04/10 10:35:10;;;;;;;2.20;1.58;;;;;;;3.62;81.10;94372.66;6237643;23;20039;-83
2022/04/10 10:37:49;;;;;;;2.17;1.20;;;;;;;3.29;80.12;94355.31;6242158;22;20019;-90
2022/04/10 10:40:19;;;;;;;1.83;1.30;;;;;;;3.93;82.36;94416.47;6234437;23;20028;-84
2022/04/10 10:42:49;;;;;;;2.63;1.42;;;;;;;3.01;79.69;94291.66;6238562;22;20079;-84
2022/04/10 10:45:37;;;;;;;3.47;2.03;;;;;;;3.90;81.18;94419.56;6237868;22;20084;-83
2022/04/10 10:48:32;;;;;;;2.05;1.83;;;;;;;3.63;80.23;94416.19;6238303;23;20012;-83
2022/04/10 10:51:24;;;;;;;3.85;2.70;;;;;;;3.26;81.30;94316.53;6235909;23;20011;-83
2022/04/10 10:53:53;;;;;;;4.55;3.20;;;;;;;3.64;82.06;94360.09;6219264;23;20012;-83
2022/04/10 10:56:32;;;;;;;2.80;2.10;;;;;;;3.12;78.43;94331.88;6235740;22;20020;-83
2022/04/10 10:59:21;;;;;;;7.25;4.07;;;;;;;3.57;79.75;94412.75;6235943;22;20012;-83
2022/04/10 11:02:10;;;;;;;2.45;1.70;;;;;;;2.50;80.49;94274.66;6234640;23;20004;-84
2022/04/10 11:04:41;;;;;;;5.63;2.63;;;;;;;3.14;80.95;94340.25;6233232;23;20016;-83
2022/04/10 11:07:17;;;;;;;3.60;2.33;;;;;;;3.35;81.91;94334.19;6232455;22;20071;-83
2022/04/10 11:10:05;;;;;;;2.70;2.28;;;;;;;3.47;81.35;94368.88;6234196;23;20062;-83
2022/04/10 11:12:32;;;;;;;4.00;2.08;;;;;;;3.79;79.83;94384.63;6235693;22;20022;-83
2022/04/10 11:15:02;;;;;;;2.53;1.98;;;;;;;2.50;80.03;94203.19;6236411;23;20035;-83
2022/04/10 11:17:29;;;;;;;6.20;3.00;;;;;;;3.92;80.16;94403.59;6234455;23;20016;-83
2022/04/10 11:19:59;;;;;;;2.53;2.30;;;;;;;3.83;79.62;94390.94;6235087;23;20445;-82
2022/04/10 11:22:31;;;;;;;3.70;2.42;;;;;;;3.44;80.72;94369.34;6234016;23;20022;-83
2022/04/10 11:25:03;;;;;;;;;;;;;;;3.58;80.15;94393.34;6235364;22;20019;-83
2022/04/10 11:27:47;;;;;;;6.72;4.00;;;;;;;3.72;81.25;94393.72;6235789;23;19916;-83
2022/04/10 11:30:35;;;;;;;9.30;3.97;;;;;;;3.91;81.90;94394.13;6236192;23;20012;-84
2022/04/10 11:33:11;;;;;;;5.38;3.55;;;;;;;3.77;79.56;94397.19;6233124;23;20030;-84
2022/04/10 11:35:39;;;;;;;4.30;2.90;;;;;;;3.89;80.21;94408.28;6232914;23;20023;-84
2022/04/10 11:38:13;;;;;;;7.10;2.35;;;;;;;3.07;79.07;94321.31;6233981;23;20020;-84